Latest Weather Observations for Camooweal

IDD60801

Issued at 12:01 pm CST Friday 1 July 2016 (issued every 30 minutes, with the page automatically refreshed every 10 minutes)

About weather observations | Map of weather stations | Latest weather observations for NT | Other Formats
Station Details ID: 037010 Name: CAMOOWEAL TOWNSHIP Lat: -19.92 Lon: 138.12 Height: 231.2 m
Data from the previous 72 hours. | See also: Recent months at Camooweal
Date/Time
CST
Temp
°C
App
Temp
°C
Dew
Point
°C
Rel
Hum
%
Delta-T
°C
Wind Press
QNH
hPa
Press
MSL
hPa
Rain since
9am
mm
Dir  Spd
km/h
Gust
km/h
Spd
kts
Gust
kts
01/12:00pm 25.3 19.0 5.5 28 10.2 SE 28 39 15 21 1022.0 1021.6 0.0
01/11:30am 24.7 17.9 5.0 28 10.0 ESE 30 41 16 22 1022.4 1022.0 0.0
01/11:00am 25.0 19.1 5.7 29 10.0 SE 26 39 14 21 1022.7 1022.3 0.0
01/10:30am 23.6 17.9 5.0 30 9.4 SE 24 30 13 16 1022.8 1022.4 0.0
01/10:00am 22.7 17.4 5.2 32 8.8 SE 22 30 12 16 1023.1 1022.7 0.0
01/09:30am 21.2 16.1 3.9 32 8.4 SE 20 28 11 15 1023.2 1022.8 0.0
01/09:00am 19.1 14.7 2.9 34 7.6 SE 15 22 8 12 1022.9 1022.4 0.0
01/08:30am 17.7 13.7 2.8 37 6.9 SE 13 19 7 10 1022.6 1022.1 0.0
01/08:00am 14.9 11.7 3.1 45 5.4 SSE 9 13 5 7 1022.3 1021.8 0.0
01/07:30am 11.0 8.1 4.5 64 2.9 SSW 9 13 5 7 1022.4 1021.9 0.0
01/07:00am 9.3 5.6 4.5 72 2.2 SSW 13 17 7 9 1021.9 1021.4 0.0
01/06:30am 9.9 7.2 3.9 66 2.7 S 7 9 4 5 1021.4 1020.9 0.0
01/06:00am 11.2 8.3 2.8 56 3.7 SE 7 9 4 5 1020.9 1020.4 0.0
01/05:30am 11.3 8.5 2.3 54 3.9 S 6 7 3 4 1020.5 1020.0 0.0
01/05:00am 11.4 8.5 2.7 55 3.8 ESE 7 9 4 5 1020.0 1019.5 0.0
01/04:30am 10.1 7.0 3.4 63 2.9 SSE 9 9 5 5 1019.8 1019.2 0.0
01/04:00am 10.9 7.6 2.5 56 3.7 S 9 11 5 6 1019.6 1019.1 0.0
01/03:30am 11.2 7.5 2.2 54 3.9 S 11 11 6 6 1019.5 1019.0 0.0
01/03:00am 11.1 8.1 1.9 53 4.0 S 7 9 4 5 1019.3 1018.8 0.0
01/02:30am 13.2 9.3 1.2 44 5.2 E 11 13 6 7 1019.2 1018.7 0.0
01/02:00am 13.2 9.2 0.6 42 5.4 ESE 11 13 6 7 1019.3 1018.8 0.0
01/01:30am 14.5 10.0 0.0 37 6.2 ESE 13 17 7 9 1019.4 1018.9 0.0
01/01:00am 15.4 10.9 -0.4 34 6.7 ESE 13 15 7 8 1019.6 1019.1 0.0
01/12:30am 15.4 10.9 0.0 35 6.6 SE 13 15 7 8 1020.0 1019.5 0.0
01/12:00am 15.9 11.5 0.5 35 6.7 SE 13 19 7 10 1020.1 1019.6 0.0
 
Date/Time
CST
Temp
°C
App
Temp
°C
Dew
Point
°C
Rel
Hum
%
Delta-T
°C
Wind Press
QNH
hPa
Press
MSL
hPa
Rain since
9am
mm
Dir  Spd
km/h
Gust
km/h
Spd
kts
Gust
kts
30/11:30pm 15.0 10.7 1.2 39 6.0 SE 13 15 7 8 1020.1 1019.6 0.0
30/11:00pm 14.7 10.4 0.9 39 6.0 SE 13 15 7 8 1020.2 1019.7 0.0
30/10:30pm 15.7 11.7 0.7 36 6.5 SE 11 15 6 8 1020.3 1019.8 0.0
30/10:00pm 16.6 12.3 0.7 34 7.0 SSE 13 17 7 9 1020.3 1019.8 0.0
30/09:30pm 16.7 12.3 0.4 33 7.1 SSE 13 15 7 8 1020.3 1019.8 0.0
30/09:00pm 17.6 13.3 0.7 32 7.5 SSE 13 17 7 9 1020.3 1019.8 0.0
30/08:30pm 18.1 13.8 1.2 32 7.6 SSE 13 17 7 9 1020.0 1019.5 0.0
30/08:00pm 17.6 13.8 2.0 35 7.1 SSE 11 13 6 7 1019.6 1019.1 0.0
30/07:30pm 18.4 14.9 1.4 32 7.7 SSE 9 9 5 5 1019.4 1018.9 0.0
30/07:00pm 19.3 15.7 0.8 29 8.4 SSE 9 11 5 6 1018.8 1018.3 0.0
30/06:30pm 20.9 16.9 0.2 25 9.3 SE 11 11 6 6 1018.4 1017.9 0.0
30/06:00pm 21.7 17.7 0.3 24 9.8 SSE 11 11 6 6 1018.2 1017.7 0.0
30/05:30pm 24.3 20.2 -0.1 20 11.3 SSE 11 13 6 7 1018.0 1017.5 0.0
30/05:00pm 26.5 22.0 -0.5 17 12.6 SSE 13 17 7 9 1017.8 1017.3 0.0
30/04:30pm 27.0 22.2 -0.1 17 12.8 SSE 15 24 8 13 1017.8 1017.3 0.0
30/04:00pm 27.3 22.2 -1.6 15 13.3 S 15 22 8 12 1017.7 1017.2 0.0
30/03:30pm 27.4 22.8 1.8 19 12.5 SSW 15 20 8 11 1017.8 1017.3 0.0
30/03:00pm 27.4 22.7 1.0 18 12.7 S 15 20 8 11 1018.0 1017.5 0.0
30/02:30pm 27.1 22.0 0.8 18 12.6 S 17 24 9 13 1018.3 1017.8 0.0
30/02:00pm 27.6 22.9 3.3 21 12.2 SSW 17 26 9 14 1018.7 1018.2 0.0
30/01:30pm 27.2 21.9 1.6 19 12.4 SSW 19 26 10 14 1019.0 1018.5 0.0
30/01:00pm 27.0 22.4 3.5 22 11.8 SW 17 24 9 13 1019.5 1019.0 0.0
30/12:30pm 26.3 22.6 2.3 21 11.7 SW 11 20 6 11 1020.0 1019.5 0.0
30/12:00pm 25.6 22.8 2.9 23 11.2 SW 7 13 4 7 1020.5 1020.0 0.0
30/11:30am 25.6 23.2 2.3 22 11.3 NW 4 7 2 4 1020.8 1020.3 0.0
30/11:00am 24.9 21.9 1.1 21 11.3 NE 6 11 3 6 1021.2 1020.7 0.0
30/10:30am 24.0 20.4 0.4 21 10.9 NE 9 11 5 6 1021.4 1020.9 0.0
30/10:00am 23.0 19.0 0.8 23 10.3 ENE 11 17 6 9 1021.5 1021.0 0.0
30/09:30am 21.2 17.3 1.0 26 9.3 NE 11 19 6 10 1021.6 1021.1 0.0
30/09:00am 19.3 15.1 1.8 31 8.1 ENE 13 19 7 10 1021.5 1021.0 0.0
30/08:30am 17.5 13.0 2.3 36 6.9 ENE 15 20 8 11 1021.0 1020.5 0.0
30/08:00am 15.1 11.1 3.0 44 5.5 ENE 13 20 7 11 1020.7 1020.2 0.0
30/07:30am 10.7 8.2 5.0 68 2.6 ENE 7 9 4 5 1020.4 1019.9 0.0
30/07:00am 9.0 7.8 4.8 75 1.9 CALM 0 0 0 0 1020.4 1019.9 0.0
30/06:30am 8.8 7.5 4.2 73 2.0 CALM 0 0 0 0 1020.1 1019.6 0.0
30/06:00am 9.4 7.3 3.8 68 2.5 ENE 4 7 2 4 1019.6 1019.1 0.0
30/05:30am 10.9 7.5 4.1 63 3.1 ENE 11 13 6 7 1019.2 1018.7 0.0
30/05:00am 10.2 6.7 5.4 72 2.2 E 13 17 7 9 1019.5 1019.0 0.0
30/04:30am 9.0 7.8 6.3 83 1.3 SE 2 6 1 3 1019.9 1019.4 0.0
30/04:00am 8.6 6.4 5.4 80 1.5 SSE 6 7 3 4 1020.0 1019.5 0.0
30/03:30am 9.1 6.9 5.5 78 1.6 SSE 6 7 3 4 1019.9 1019.4 0.0
30/03:00am 9.4 8.4 5.6 77 1.8 CALM 0 0 0 0 1020.0 1019.5 0.0
30/02:30am 9.2 6.8 5.4 77 1.7 S 7 9 4 5 1020.1 1019.6 0.0
30/02:00am 9.0 6.3 5.6 79 1.6 S 9 9 5 5 1020.2 1019.7 0.0
30/01:30am 10.2 9.2 5.4 72 2.2 CALM 0 4 0 2 1020.3 1019.8 0.0
30/01:00am 10.7 9.3 5.3 69 2.5 SSW 2 6 1 3 1020.5 1020.0 0.0
30/12:30am 10.9 8.5 5.4 69 2.5 SSW 7 9 4 5 1020.4 1019.9 0.0
30/12:00am 11.6 9.3 5.9 68 2.7 SSW 7 9 4 5 1020.5 1020.0 0.0
 
Date/Time
CST
Temp
°C
App
Temp
°C
Dew
Point
°C
Rel
Hum
%
Delta-T
°C
Wind Press
QNH
hPa
Press
MSL
hPa
Rain since
9am
mm
Dir  Spd
km/h
Gust
km/h
Spd
kts
Gust
kts
29/11:30pm 12.0 9.7 5.6 65 3.0 S 7 9 4 5 1020.4 1019.9 0.0
29/11:00pm 12.0 9.3 5.6 65 3.0 S 9 11 5 6 1020.7 1020.2 0.0
29/10:30pm 12.9 10.2 5.8 62 3.4 SSW 9 11 5 6 1020.6 1020.1 0.0
29/10:00pm 13.4 11.1 5.6 59 3.7 SSW 7 9 4 5 1020.7 1020.2 0.0
29/09:30pm 13.3 10.4 4.7 56 4.0 S 9 11 5 6 1020.7 1020.2 0.0
29/09:00pm 14.4 11.6 5.2 54 4.4 SSW 9 11 5 6 1020.6 1020.1 0.0
29/08:30pm 15.2 11.6 5.1 51 4.8 SSW 13 15 7 8 1020.5 1020.0 0.0
29/08:00pm 16.4 12.8 4.8 46 5.6 SSW 13 15 7 8 1020.2 1019.7 0.0
29/07:30pm 18.3 13.9 4.8 41 6.5 S 17 22 9 12 1019.8 1019.2 0.0
29/07:00pm 20.0 14.6 4.5 36 7.6 SSW 22 30 12 16 1019.3 1018.8 0.0
29/06:30pm 20.7 17.0 4.7 35 7.9 S 13 17 7 9 1018.9 1018.4 0.0
29/06:00pm 22.3 19.4 4.8 32 8.7 SSW 9 15 5 8 1018.5 1018.0 0.0
29/05:30pm 24.4 21.6 5.2 29 9.8 SSW 9 11 5 6 1018.2 1017.7 0.0
29/05:00pm 26.6 24.1 3.8 23 11.5 SE 6 7 3 4 1017.9 1017.4 0.0
29/04:30pm 26.9 24.3 4.0 23 11.6 SSE 7 13 4 7 1017.8 1017.3 0.0
29/04:00pm 27.6 25.3 4.6 23 11.8 S 6 11 3 6 1017.7 1017.2 0.0
29/03:30pm 27.6 25.1 4.6 23 11.8 SE 7 13 4 7 1017.5 1017.0 0.0
29/03:00pm 27.5 25.0 4.5 23 11.8 WNW 7 11 4 6 1017.5 1017.0 0.0
29/02:30pm 27.3 24.8 5.0 24 11.5 NNE 7 15 4 8 1017.8 1017.3 0.0
29/02:00pm 26.8 23.0 5.7 26 11.0 NNE 15 24 8 13 1018.0 1017.5 0.0
29/01:30pm 26.8 23.2 5.1 25 11.2 NE 13 20 7 11 1018.3 1017.8 0.0
29/01:00pm 25.9 22.3 4.9 26 10.8 ENE 13 19 7 10 1018.8 1018.3 0.0
29/12:30pm 25.0 21.0 4.7 27 10.3 ENE 15 20 8 11 1019.6 1019.1 0.0
29/12:00pm 23.3 19.9 3.8 28 9.6 ENE 11 17 6 9 1020.5 1020.0 0.0
29/11:30am 22.1 18.2 3.3 29 9.1 ENE 13 20 7 11 1021.3 1020.8 0.0
29/11:00am 20.9 17.3 2.7 30 8.6 ENE 11 20 6 11 1021.9 1021.4 0.0
29/10:30am 18.5 15.5 3.9 38 6.9 E 9 15 5 8 1022.4 1021.9 0.0
29/10:00am 16.6 14.0 4.0 43 5.9 E 7 11 4 6 1022.5 1022.0 0.0
29/09:30am 14.5 11.1 4.2 50 4.8 ESE 11 15 6 8 1022.5 1022.0 0.0
29/09:00am 12.8 9.9 4.5 57 3.8 SE 9 17 5 9 1022.4 1021.9 0.0
29/08:30am 8.8 5.9 4.4 74 2.0 SSW 9 13 5 7 1022.3 1021.8 0.0
29/08:00am 6.6 3.3 4.3 85 1.0 SSW 11 13 6 7 1022.2 1021.7 0.0
29/07:30am 4.4 1.6 3.2 92 0.5 SSW 7 9 4 5 1022.0 1021.5 0.0
29/07:00am 3.7 0.8 2.4 91 0.5 SSW 7 9 4 5 1022.0 1021.5 0.0
29/06:30am 4.0 1.1 2.7 91 0.5 SSW 7 7 4 4 1021.9 1021.4 0.0
29/06:00am 4.4 1.7 2.9 90 0.6 SW 6 7 3 4 1021.9 1021.4 0.0
29/05:30am 4.5 1.6 2.5 87 0.8 SSW 7 9 4 5 1021.7 1021.2 0.0
29/05:00am 4.7 1.4 2.6 86 0.9 SSW 9 11 5 6 1021.7 1021.2 0.0
29/04:30am 4.8 1.9 2.5 85 0.9 SSW 7 7 4 4 1021.8 1021.3 0.0
29/04:00am 5.1 1.8 2.5 83 1.1 SSW 9 11 5 6 1021.8 1021.3 0.0
29/03:30am 5.7 2.9 2.9 82 1.2 S 7 7 4 4 1021.9 1021.4 0.0
29/03:00am 5.8 3.1 2.6 80 1.3 SSW 6 7 3 4 1022.0 1021.5 0.0
29/02:30am 7.1 4.3 3.2 76 1.7 SW 7 9 4 5 1022.2 1021.7 0.0
29/02:00am 8.4 5.6 3.1 69 2.3 SW 7 7 4 4 1022.2 1021.7 0.0
29/01:30am 10.0 6.4 3.1 62 3.0 SSE 11 13 6 7 1022.3 1021.8 0.0
29/01:00am 11.0 7.0 3.1 58 3.5 SSE 13 17 7 9 1022.4 1021.9 0.0
29/12:30am 11.6 7.3 3.4 57 3.7 SSE 15 20 8 11 1022.1 1021.6 0.0
29/12:00am 12.2 7.5 3.4 55 4.0 SSE 17 22 9 12 1022.2 1021.7 0.0
 
Date/Time
CST
Temp
°C
App
Temp
°C
Dew
Point
°C
Rel
Hum
%
Delta-T
°C
Wind Press
QNH
hPa
Press
MSL
hPa
Rain since
9am
mm
Dir  Spd
km/h
Gust
km/h
Spd
kts
Gust
kts
28/11:30pm 12.3 7.2 3.3 54 4.0 SSE 19 24 10 13 1022.4 1021.9 0.0
28/11:00pm 12.6 8.0 3.6 54 4.1 SSE 17 22 9 12 1022.5 1022.0 0.0
28/10:30pm 12.5 8.3 3.7 55 4.0 SSE 15 20 8 11 1022.7 1022.2 0.0
28/10:00pm 12.9 9.0 3.6 53 4.2 SSE 13 17 7 9 1022.9 1022.4 0.0
28/09:30pm 13.6 9.3 3.4 50 4.6 SSE 15 20 8 11 1022.9 1022.4 0.0
28/09:00pm 14.3 9.6 3.2 47 5.1 SSE 17 24 9 13 1022.8 1022.3 0.0
28/08:30pm 15.0 9.8 3.5 46 5.3 SSE 20 24 11 13 1022.7 1022.2 0.0
28/08:00pm 15.3 10.7 3.5 45 5.5 SSE 17 22 9 12 1022.6 1022.1 0.0
28/07:30pm 15.7 11.1 3.5 44 5.6 SSE 17 20 9 11 1022.2 1021.7 0.0
28/07:00pm 16.3 11.6 3.0 41 6.1 SSE 17 22 9 12 1022.0 1021.5 0.0
28/06:30pm 16.6 12.2 2.6 39 6.4 S 15 19 8 10 1021.7 1021.2 0.0
28/06:00pm 18.0 13.1 2.3 35 7.2 S 17 20 9 11 1021.4 1020.9 0.0
28/05:30pm 19.2 14.0 2.6 33 7.7 SSE 19 26 10 14 1021.2 1020.7 0.0
28/05:00pm 20.6 15.3 2.9 31 8.4 SSE 20 30 11 16 1020.8 1020.3 0.0
28/04:30pm 21.1 15.7 2.4 29 8.8 SSE 20 28 11 15 1020.7 1020.2 0.0
28/04:00pm 21.8 16.6 2.5 28 9.2 SSE 19 30 10 16 1020.5 1020.0 0.0
28/03:30pm 21.6 16.7 2.3 28 9.1 SSE 17 24 9 13 1020.5 1020.0 0.0
28/03:00pm 21.7 16.6 3.9 31 8.7 SSE 20 30 11 16 1020.6 1020.1 0.0
28/02:30pm 21.3 16.1 3.5 31 8.6 S 20 32 11 17 1020.6 1020.1 0.0
28/02:00pm 20.9 16.0 4.0 33 8.2 SSE 19 26 10 14 1020.8 1020.3 0.0
28/01:30pm 20.5 15.7 4.5 35 7.8 SSE 19 28 10 15 1021.2 1020.7 0.0
28/01:00pm 19.6 15.7 5.3 39 7.1 SSE 15 24 8 13 1021.8 1021.3 0.0
28/12:30pm 18.7 14.1 5.5 42 6.5 SSE 19 28 10 15 1022.4 1021.9 0.0
28/12:00pm 18.7 15.1 6.9 46 6.0 SSE 15 22 8 12 1022.9 1022.4 0.0

Other Formats:

Comma delimited format used in spreadsheet applications
http://www.bom.gov.au/fwo/IDD60801/IDD60801.94255.axf

JavaScript Object Notation format (JSON) in row-major order
http://www.bom.gov.au/fwo/IDD60801/IDD60801.94255.json